Time;durP1;ratioP1;P1;durP2;ratioP2;P2;SDS_P1;SDS_P2;PMS_P1;PMS_P2;Temp;Humidity;BMP_temperature;BMP_pressure;BME280_temperature;BME280_humidity;BME280_pressure;Samples;Min_cycle;Max_cycle;Signal;HPM_P1;HPM_P2
2023/05/09 00:01:17;;;;;;;0.93;0.77;;;13.00;93.80;;;;;;4876245;29;20689;-79
2023/05/09 00:03:46;;;;;;;0.97;0.70;;;12.90;93.70;;;;;;4878452;29;20643;-80
2023/05/09 00:06:16;;;;;;;0.50;0.50;;;12.90;93.70;;;;;;4873968;29;21562;-79
2023/05/09 00:08:44;;;;;;;1.70;0.60;;;13.00;93.80;;;;;;4876935;29;20691;-79
2023/05/09 00:11:13;;;;;;;1.10;1.00;;;13.00;93.60;;;;;;4873498;29;20208;-81
2023/05/09 00:13:42;;;;;;;0.50;0.50;;;12.90;93.50;;;;;;4869067;29;20305;-79
2023/05/09 00:16:12;;;;;;;0.30;0.30;;;12.90;93.40;;;;;;4878438;29;20204;-80
2023/05/09 00:18:41;;;;;;;1.00;0.90;;;12.90;93.60;;;;;;4876686;29;20307;-76
2023/05/09 00:21:09;;;;;;;0.70;0.70;;;12.80;93.50;;;;;;4876297;29;20224;-80
2023/05/09 00:23:39;;;;;;;0.60;0.60;;;12.80;93.50;;;;;;4876201;29;20204;-77
2023/05/09 00:26:08;;;;;;;7.47;1.50;;;12.80;93.50;;;;;;4875119;29;20205;-75
2023/05/09 00:28:36;;;;;;;1.57;1.20;;;12.80;93.50;;;;;;4876348;29;20707;-77
2023/05/09 00:31:05;;;;;;;0.30;0.30;;;12.80;93.40;;;;;;4874818;29;20289;-79
2023/05/09 00:33:33;;;;;;;1.60;1.50;;;12.90;93.40;;;;;;4876303;29;20320;-78
2023/05/09 00:36:02;;;;;;;0.97;0.87;;;12.80;93.30;;;;;;4873103;29;20296;-75
2023/05/09 00:38:30;;;;;;;0.30;0.30;;;12.90;93.40;;;;;;4869533;29;20237;-77
2023/05/09 00:41:00;;;;;;;0.50;0.50;;;12.80;93.30;;;;;;4875436;29;20277;-78
2023/05/09 00:43:28;;;;;;;0.70;0.70;;;12.80;93.30;;;;;;4873239;29;20204;-76
2023/05/09 00:45:56;;;;;;;1.13;1.00;;;12.90;93.30;;;;;;4870265;29;20284;-76
2023/05/09 00:48:25;;;;;;;0.30;0.30;;;12.90;93.30;;;;;;4872601;29;20558;-76
2023/05/09 00:50:53;;;;;;;1.57;0.97;;;12.90;93.30;;;;;;4874951;29;20193;-76
2023/05/09 00:53:21;;;;;;;2.63;0.83;;;12.90;93.30;;;;;;4877466;29;20217;-75
2023/05/09 00:55:50;;;;;;;0.40;0.40;;;12.90;93.30;;;;;;4876810;29;20240;-74
2023/05/09 00:58:19;;;;;;;1.43;1.33;;;13.00;93.30;;;;;;4875813;29;20230;-77
2023/05/09 01:00:48;;;;;;;0.57;0.57;;;13.00;93.20;;;;;;4876845;29;20257;-77
2023/05/09 01:03:16;;;;;;;0.80;0.80;;;12.90;93.10;;;;;;4873760;29;20225;-77
2023/05/09 01:05:54;;;;;;;2.53;1.03;;;13.00;93.10;;;;;;4879127;29;20209;-75
2023/05/09 01:08:34;;;;;;;1.87;0.80;;;12.90;93.10;;;;;;4878739;29;20248;-76
2023/05/09 01:11:10;;;;;;;0.40;0.40;;;12.90;93.10;;;;;;4867738;29;20231;-78
2023/05/09 01:14:00;;;;;;;0.60;0.60;;;12.90;93.10;;;;;;4874454;29;20239;-75
2023/05/09 01:16:35;;;;;;;0.87;0.77;;;12.90;93.00;;;;;;4874562;29;20197;-77
2023/05/09 01:19:14;;;;;;;0.33;0.33;;;12.90;92.90;;;;;;4874012;29;20224;-77
2023/05/09 01:21:47;;;;;;;0.40;0.40;;;12.90;93.00;;;;;;4873932;29;20285;-75
2023/05/09 01:24:34;;;;;;;0.47;0.47;;;12.90;93.00;;;;;;4869115;29;20253;-77
2023/05/09 01:27:19;;;;;;;0.30;0.30;;;12.90;92.90;;;;;;4879318;29;20205;-78
2023/05/09 01:29:51;;;;;;;1.00;0.97;;;12.90;92.90;;;;;;4873772;29;20284;-77
2023/05/09 01:32:24;;;;;;;0.70;0.53;;;12.90;92.80;;;;;;4872501;29;20657;-76
2023/05/09 01:34:56;;;;;;;0.30;0.30;;;12.80;92.70;;;;;;4869995;29;20216;-78
2023/05/09 01:37:30;;;;;;;0.57;0.57;;;12.90;92.80;;;;;;4872375;29;20288;-77
2023/05/09 01:40:04;;;;;;;0.40;0.40;;;12.90;92.80;;;;;;4869200;29;20574;-77
2023/05/09 01:42:39;;;;;;;0.63;0.63;;;12.90;92.80;;;;;;4878158;29;20193;-76
2023/05/09 01:45:10;;;;;;;0.63;0.50;;;12.90;92.80;;;;;;4870156;29;20255;-76
2023/05/09 01:47:40;;;;;;;0.40;0.33;;;12.90;92.80;;;;;;4869804;29;20235;-77
2023/05/09 01:50:10;;;;;;;0.60;0.50;;;12.80;92.60;;;;;;4866620;29;20210;-79
2023/05/09 01:52:42;;;;;;;0.67;0.60;;;12.90;92.70;;;;;;4874209;29;20292;-77
2023/05/09 01:55:12;;;;;;;0.60;0.60;;;12.90;92.60;;;;;;4871783;29;20205;-75
2023/05/09 01:57:42;;;;;;;1.70;0.67;;;12.90;92.60;;;;;;4873562;29;20654;-76
2023/05/09 02:00:13;;;;;;;0.33;0.33;;;12.90;92.50;;;;;;4871661;29;20249;-77
2023/05/09 02:02:42;;;;;;;0.40;0.40;;;12.90;92.60;;;;;;4871039;29;20197;-75
2023/05/09 02:05:12;;;;;;;0.93;0.40;;;12.80;92.40;;;;;;4868352;29;20205;-76
2023/05/09 02:07:42;;;;;;;0.40;0.40;;;12.80;92.50;;;;;;4872780;29;20229;-78
2023/05/09 02:10:12;;;;;;;0.43;0.43;;;12.80;92.40;;;;;;4873103;29;20202;-78
2023/05/09 02:12:40;;;;;;;0.97;0.83;;;12.80;92.50;;;;;;4873154;29;20229;-78
2023/05/09 02:15:09;;;;;;;0.50;0.50;;;12.80;92.50;;;;;;4866283;29;20205;-79
2023/05/09 02:17:39;;;;;;;0.70;0.60;;;12.80;92.30;;;;;;4875583;29;20218;-77
2023/05/09 02:20:10;;;;;;;0.33;0.33;;;12.80;92.40;;;;;;4873393;29;20228;-77
2023/05/09 02:22:40;;;;;;;0.60;0.60;;;12.70;92.30;;;;;;4876138;29;20240;-76
2023/05/09 02:25:14;;;;;;;1.33;0.53;;;12.70;92.50;;;;;;4873995;29;20693;-75
2023/05/09 02:27:45;;;;;;;0.47;0.47;;;12.70;92.50;;;;;;4877835;29;20252;-76
2023/05/09 02:30:19;;;;;;;0.87;0.53;;;12.60;92.50;;;;;;4871584;29;20194;-78
2023/05/09 02:32:52;;;;;;;0.73;0.73;;;12.60;92.30;;;;;;4873636;29;20205;-77
2023/05/09 02:35:21;;;;;;;0.93;0.57;;;12.60;92.30;;;;;;4875235;29;20208;-79
2023/05/09 02:37:50;;;;;;;0.97;0.60;;;12.60;92.50;;;;;;4871922;29;20259;-77
2023/05/09 02:40:20;;;;;;;0.57;0.40;;;12.60;92.50;;;;;;4870312;29;20318;-78
2023/05/09 02:42:48;;;;;;;0.67;0.67;;;12.60;92.50;;;;;;4873737;29;20229;-77
2023/05/09 02:45:16;;;;;;;0.20;0.20;;;12.60;92.60;;;;;;4868440;29;20300;-77
2023/05/09 02:47:45;;;;;;;0.93;0.60;;;12.60;92.50;;;;;;4872613;29;20206;-76
2023/05/09 02:50:15;;;;;;;0.47;0.47;;;12.60;92.50;;;;;;4876386;29;20197;-76
2023/05/09 02:52:43;;;;;;;2.47;1.37;;;12.60;92.30;;;;;;4871486;29;20264;-78
2023/05/09 02:55:11;;;;;;;0.40;0.40;;;12.60;92.40;;;;;;4865450;29;20705;-76
2023/05/09 02:57:40;;;;;;;0.97;0.97;;;12.60;92.40;;;;;;4867913;29;20202;-77
2023/05/09 03:00:11;;;;;;;1.37;0.87;;;12.60;92.30;;;;;;4873166;29;20209;-76
2023/05/09 03:02:39;;;;;;;0.77;0.77;;;12.60;92.20;;;;;;4872843;29;20273;-77
2023/05/09 03:05:08;;;;;;;0.30;0.30;;;12.50;92.10;;;;;;4870596;29;20205;-77
2023/05/09 03:07:38;;;;;;;0.83;0.53;;;12.50;92.20;;;;;;4874330;29;20232;-77
2023/05/09 03:10:07;;;;;;;0.63;0.63;;;12.50;92.20;;;;;;4873782;29;20224;-77
2023/05/09 03:12:37;;;;;;;0.60;0.60;;;12.50;92.20;;;;;;4873940;29;20212;-75
2023/05/09 03:15:06;;;;;;;0.43;0.43;;;12.50;92.40;;;;;;4875213;29;20212;-78
2023/05/09 03:17:35;;;;;;;0.97;0.60;;;12.50;92.20;;;;;;4869448;29;20209;-75
2023/05/09 03:20:04;;;;;;;0.50;0.50;;;12.50;92.20;;;;;;4873766;29;20208;-76
2023/05/09 03:22:32;;;;;;;1.98;0.60;;;12.60;92.30;;;;;;4875898;29;20460;-77
2023/05/09 03:25:02;;;;;;;1.40;0.80;;;12.50;92.40;;;;;;4877418;29;20296;-78
2023/05/09 03:27:31;;;;;;;0.70;0.70;;;12.60;92.40;;;;;;4876511;29;20202;-78
2023/05/09 03:29:59;;;;;;;1.20;0.70;;;12.60;92.30;;;;;;4873845;29;20201;-77
2023/05/09 03:32:27;;;;;;;1.17;0.90;;;12.50;92.40;;;;;;4868612;29;20300;-77
2023/05/09 03:34:56;;;;;;;0.50;0.50;;;12.60;92.30;;;;;;4871764;29;20201;-76
2023/05/09 03:37:24;;;;;;;0.43;0.37;;;12.60;92.10;;;;;;4868563;29;20342;-77
2023/05/09 03:39:55;;;;;;;0.30;0.30;;;12.70;92.10;;;;;;4870524;29;20201;-78
2023/05/09 03:42:25;;;;;;;0.57;0.57;;;12.70;92.00;;;;;;4872097;29;20229;-77
2023/05/09 03:44:53;;;;;;;2.67;0.57;;;12.70;91.90;;;;;;4878858;29;20211;-77
2023/05/09 03:47:22;;;;;;;1.97;0.57;;;12.70;91.90;;;;;;4872712;29;20205;-75
2023/05/09 03:49:50;;;;;;;0.77;0.77;;;12.80;91.90;;;;;;4868437;29;20192;-77
2023/05/09 03:52:18;;;;;;;0.80;0.80;;;12.80;91.80;;;;;;4871907;29;20201;-76
2023/05/09 03:54:46;;;;;;;0.33;0.33;;;12.80;91.80;;;;;;4870563;29;20669;-76
2023/05/09 03:57:15;;;;;;;0.40;0.30;;;12.80;91.70;;;;;;4872108;29;20253;-76
2023/05/09 03:59:44;;;;;;;0.37;0.37;;;12.80;91.70;;;;;;4873007;29;20616;-76
2023/05/09 04:02:13;;;;;;;0.77;0.60;;;12.80;91.70;;;;;;4874030;29;20780;-75
2023/05/09 04:04:41;;;;;;;0.57;0.57;;;12.90;91.70;;;;;;4871715;29;20233;-76
2023/05/09 04:07:09;;;;;;;0.30;0.30;;;12.90;91.50;;;;;;4874707;29;20258;-76
2023/05/09 04:09:38;;;;;;;0.30;0.30;;;12.90;91.50;;;;;;4875335;29;20613;-76
2023/05/09 04:12:07;;;;;;;1.13;0.77;;;12.90;91.30;;;;;;4871429;29;20209;-76
2023/05/09 04:14:35;;;;;;;0.90;0.60;;;12.90;91.30;;;;;;4872016;29;20264;-79
2023/05/09 04:17:04;;;;;;;1.13;0.80;;;12.90;91.40;;;;;;4868108;29;20293;-78
2023/05/09 04:19:33;;;;;;;2.57;0.87;;;12.90;91.10;;;;;;4875994;29;20197;-76
2023/05/09 04:22:01;;;;;;;1.07;0.50;;;12.90;91.10;;;;;;4870278;29;20253;-76
2023/05/09 04:24:30;;;;;;;0.57;0.37;;;12.90;91.10;;;;;;4875751;29;20658;-77
2023/05/09 04:26:58;;;;;;;0.40;0.40;;;13.00;91.20;;;;;;4877580;29;20201;-76
2023/05/09 04:29:26;;;;;;;0.53;0.40;;;13.10;91.10;;;;;;4876428;29;20225;-76
2023/05/09 04:31:55;;;;;;;0.37;0.37;;;13.10;90.80;;;;;;4869714;29;20629;-76
2023/05/09 04:34:26;;;;;;;0.77;0.77;;;13.10;90.70;;;;;;4879412;29;20237;-76
2023/05/09 04:36:54;;;;;;;1.00;0.90;;;13.10;90.70;;;;;;4880536;29;20209;-75
2023/05/09 04:39:23;;;;;;;0.40;0.40;;;13.20;90.80;;;;;;4875798;29;20705;-78
2023/05/09 04:41:54;;;;;;;1.03;0.93;;;13.20;90.50;;;;;;4866290;29;20229;-77
2023/05/09 04:44:23;;;;;;;0.30;0.30;;;13.20;90.50;;;;;;4876201;29;20201;-75
2023/05/09 04:46:53;;;;;;;0.70;0.70;;;13.30;90.60;;;;;;4877106;29;20208;-75
2023/05/09 04:49:22;;;;;;;0.97;0.70;;;13.30;90.40;;;;;;4870863;29;20611;-76
2023/05/09 04:51:51;;;;;;;1.00;0.70;;;13.30;90.00;;;;;;4876057;29;20207;-76
2023/05/09 04:54:20;;;;;;;0.50;0.50;;;13.40;90.30;;;;;;4880290;29;20201;-77
2023/05/09 04:56:48;;;;;;;0.53;0.53;;;13.40;90.30;;;;;;4879258;29;20607;-78
2023/05/09 04:59:17;;;;;;;0.70;0.70;;;13.40;90.00;;;;;;4874200;29;20597;-75
2023/05/09 05:01:46;;;;;;;0.33;0.33;;;13.50;90.10;;;;;;4872730;29;20265;-75
2023/05/09 05:04:14;;;;;;;0.83;0.63;;;13.60;90.10;;;;;;4874184;29;20212;-75
2023/05/09 05:06:42;;;;;;;1.70;1.07;;;13.60;89.40;;;;;;4866010;29;20216;-76
2023/05/09 05:09:12;;;;;;;0.40;0.40;;;13.60;90.00;;;;;;4867832;29;20308;-76
2023/05/09 05:11:43;;;;;;;0.80;0.73;;;13.70;90.00;;;;;;4862117;29;20206;-77
2023/05/09 05:14:27;;;;;;;0.50;0.43;;;13.70;89.30;;;;;;4853347;29;20205;-76
2023/05/09 05:16:55;;;;;;;1.30;0.93;;;13.70;88.90;;;;;;4861850;29;20209;-77
2023/05/09 05:19:24;;;;;;;2.70;0.80;;;13.70;88.40;;;;;;4876826;29;20597;-77
2023/05/09 05:21:52;;;;;;;0.87;0.73;;;13.80;88.00;;;;;;4879146;29;20279;-76
2023/05/09 05:24:21;;;;;;;0.57;0.40;;;13.80;88.10;;;;;;4877709;29;20240;-76
2023/05/09 05:26:50;;;;;;;1.60;0.43;;;13.90;88.40;;;;;;4877544;29;20280;-79
2023/05/09 05:29:19;;;;;;;0.30;0.30;;;13.90;88.20;;;;;;4878753;29;20236;-79
2023/05/09 05:31:47;;;;;;;1.03;0.70;;;13.90;87.20;;;;;;4870344;29;20209;-77
2023/05/09 05:34:16;;;;;;;0.70;0.50;;;14.00;87.00;;;;;;4886439;29;20209;-77
2023/05/09 05:36:44;;;;;;;2.87;0.87;;;14.00;87.50;;;;;;4884049;29;20228;-76
2023/05/09 05:39:12;;;;;;;0.50;0.40;;;14.00;87.50;;;;;;4882992;29;20328;-76
2023/05/09 05:41:42;;;;;;;0.40;0.40;;;14.00;87.10;;;;;;4883763;29;20288;-80
2023/05/09 05:44:10;;;;;;;0.50;0.37;;;14.10;87.20;;;;;;4885159;29;20197;-77
2023/05/09 05:46:39;;;;;;;0.63;0.60;;;14.20;87.30;;;;;;4889078;29;20205;-76
2023/05/09 05:49:07;;;;;;;0.70;0.60;;;14.30;87.50;;;;;;4879773;29;20223;-76
2023/05/09 05:51:35;;;;;;;0.80;0.73;;;14.30;87.20;;;;;;4885037;29;20654;-76
2023/05/09 05:54:04;;;;;;;0.30;0.30;;;14.30;87.00;;;;;;4882107;29;20200;-76
2023/05/09 05:56:32;;;;;;;0.30;0.30;;;14.40;87.00;;;;;;4873980;29;20260;-78
2023/05/09 05:59:02;;;;;;;0.23;0.23;;;14.50;86.60;;;;;;4875809;29;20294;-76
2023/05/09 06:01:30;;;;;;;3.33;1.20;;;14.50;85.80;;;;;;4880706;29;20280;-77
2023/05/09 06:03:58;;;;;;;0.57;0.57;;;14.60;85.70;;;;;;4878328;29;20221;-77
2023/05/09 06:06:27;;;;;;;0.73;0.40;;;14.60;85.40;;;;;;4882490;29;20205;-76
2023/05/09 06:08:56;;;;;;;0.45;0.40;;;14.70;85.30;;;;;;4884129;29;20492;-80
2023/05/09 06:11:24;;;;;;;0.30;0.30;;;14.80;85.80;;;;;;4882460;29;20212;-77
2023/05/09 06:13:52;;;;;;;10.83;0.80;;;14.80;85.90;;;;;;4883416;29;20616;-78
2023/05/09 06:16:22;;;;;;;0.63;0.53;;;14.90;84.40;;;;;;4879471;29;20230;-77
2023/05/09 06:18:51;;;;;;;0.97;0.50;;;14.90;84.80;;;;;;4876223;29;20201;-77
2023/05/09 06:21:25;;;;;;;0.80;0.55;;;14.90;83.60;;;;;;4873950;29;20463;-77
2023/05/09 06:23:53;;;;;;;0.57;0.40;;;15.00;84.70;;;;;;4878810;29;20209;-77
2023/05/09 06:26:37;;;;;;;1.37;1.10;;;15.10;84.90;;;;;;4878924;29;20233;-76
2023/05/09 06:29:06;;;;;;;0.83;0.70;;;15.20;84.50;;;;;;4881131;29;20220;-77
2023/05/09 06:31:37;;;;;;;0.30;0.30;;;15.30;84.30;;;;;;4877061;29;20213;-75
2023/05/09 06:34:06;;;;;;;0.77;0.70;;;15.40;83.80;;;;;;4881416;29;20281;-75
2023/05/09 06:36:34;;;;;;;2.03;1.07;;;15.50;84.20;;;;;;4880158;29;20284;-73
2023/05/09 06:39:03;;;;;;;0.87;0.30;;;15.60;84.40;;;;;;4873301;29;20320;-76
2023/05/09 06:41:31;;;;;;;0.50;0.50;;;15.50;83.60;;;;;;4878005;29;20220;-76
2023/05/09 06:44:01;;;;;;;2.38;0.63;;;15.70;83.90;;;;;;4880454;29;20394;-74
2023/05/09 06:46:29;;;;;;;0.53;0.53;;;15.70;83.10;;;;;;4871020;29;20205;-75
2023/05/09 06:49:00;;;;;;;0.60;0.50;;;15.80;82.70;;;;;;4876972;29;20201;-76
2023/05/09 06:51:29;;;;;;;1.13;1.03;;;15.80;82.00;;;;;;4876905;29;20296;-76
2023/05/09 06:53:57;;;;;;;0.70;0.60;;;15.90;82.70;;;;;;4876169;29;20248;-76
2023/05/09 06:56:25;;;;;;;0.30;0.30;;;16.00;82.90;;;;;;4871441;29;20273;-77
2023/05/09 06:58:54;;;;;;;0.67;0.40;;;16.10;82.30;;;;;;4876086;29;20696;-77
2023/05/09 07:01:22;;;;;;;0.60;0.60;;;16.10;81.30;;;;;;4877068;29;20313;-76
2023/05/09 07:03:53;;;;;;;0.47;0.47;;;16.10;80.20;;;;;;4874394;29;20278;-76
2023/05/09 07:06:23;;;;;;;2.60;1.03;;;16.10;81.00;;;;;;4881833;29;20244;-76
2023/05/09 07:08:51;;;;;;;0.60;0.60;;;16.20;81.60;;;;;;4876030;29;20273;-77
2023/05/09 07:11:19;;;;;;;1.77;0.70;;;16.10;81.10;;;;;;4874872;29;20234;-76
2023/05/09 07:13:48;;;;;;;0.40;0.40;;;16.20;81.80;;;;;;4874113;29;20249;-77
2023/05/09 07:16:17;;;;;;;2.40;1.00;;;16.20;81.10;;;;;;4876265;29;20209;-75
2023/05/09 07:18:45;;;;;;;1.00;0.63;;;16.30;80.20;;;;;;4873823;29;20204;-76
2023/05/09 07:21:24;;;;;;;0.20;0.20;;;16.30;80.20;;;;;;4867252;29;20225;-77
2023/05/09 07:24:05;;;;;;;0.70;0.50;;;16.40;80.90;;;;;;4867600;29;20767;-75
2023/05/09 07:26:34;;;;;;;1.30;0.97;;;16.50;80.90;;;;;;4876088;29;20204;-76
2023/05/09 07:29:03;;;;;;;1.17;0.60;;;16.60;81.10;;;;;;4876426;29;20237;-75
2023/05/09 07:31:31;;;;;;;1.40;0.53;;;16.70;80.90;;;;;;4876543;29;20196;-74
2023/05/09 07:34:03;;;;;;;3.23;0.83;;;16.80;80.70;;;;;;4873644;29;20209;-75
2023/05/09 07:36:32;;;;;;;0.53;0.50;;;16.80;79.40;;;;;;4877165;29;20269;-77
2023/05/09 07:39:03;;;;;;;0.47;0.40;;;16.90;79.40;;;;;;4869038;29;20236;-76
2023/05/09 07:41:32;;;;;;;1.03;0.70;;;17.00;79.60;;;;;;4879703;29;20619;-76
2023/05/09 07:44:02;;;;;;;4.33;0.70;;;17.00;78.90;;;;;;4878045;29;20210;-76
2023/05/09 07:46:30;;;;;;;1.17;0.70;;;17.10;79.10;;;;;;4876429;29;20205;-76
2023/05/09 07:48:59;;;;;;;0.50;0.50;;;17.20;78.60;;;;;;4874275;29;20300;-75
2023/05/09 07:51:27;;;;;;;1.80;0.70;;;17.30;79.00;;;;;;4877179;29;20205;-76
2023/05/09 07:53:57;;;;;;;0.83;0.67;;;17.20;77.10;;;;;;4869476;29;20221;-75
2023/05/09 07:56:25;;;;;;;2.53;0.70;;;17.20;77.60;;;;;;4875057;29;20201;-75
2023/05/09 07:58:53;;;;;;;1.60;0.90;;;17.20;76.90;;;;;;4872003;29;20205;-77
2023/05/09 08:01:24;;;;;;;1.80;0.60;;;17.30;77.40;;;;;;4877282;29;20201;-76
2023/05/09 08:03:52;;;;;;;0.87;0.60;;;17.30;77.60;;;;;;4877742;29;20348;-77
2023/05/09 08:06:21;;;;;;;0.70;0.53;;;17.40;77.50;;;;;;4880436;29;20209;-77
2023/05/09 08:09:20;;;;;;;1.10;0.60;;;17.40;77.00;;;;;;4871699;29;20209;-75
2023/05/09 08:12:06;;;;;;;3.27;0.40;;;17.50;77.00;;;;;;4877013;29;20236;-77
2023/05/09 08:14:34;;;;;;;0.80;0.57;;;17.60;76.30;;;;;;4872402;29;20209;-78
2023/05/09 08:17:02;;;;;;;0.93;0.50;;;17.60;76.10;;;;;;4866701;29;20225;-75
2023/05/09 08:19:31;;;;;;;1.17;0.93;;;17.70;76.60;;;;;;4871338;29;20234;-77
2023/05/09 08:22:00;;;;;;;1.10;0.70;;;17.70;76.20;;;;;;4875154;29;20286;-76
2023/05/09 08:24:30;;;;;;;2.07;0.70;;;17.70;76.30;;;;;;4878593;29;20646;-78
2023/05/09 08:26:59;;;;;;;1.73;1.03;;;17.70;76.00;;;;;;4878601;29;20209;-75
2023/05/09 08:29:28;;;;;;;0.73;0.57;;;17.80;75.80;;;;;;4879539;29;20216;-76
2023/05/09 08:31:56;;;;;;;0.67;0.50;;;17.80;76.00;;;;;;4877747;29;20220;-76
2023/05/09 08:34:25;;;;;;;1.43;0.70;;;17.90;75.70;;;;;;4874979;29;20221;-78
2023/05/09 08:36:53;;;;;;;2.67;0.77;;;17.80;75.00;;;;;;4879680;29;20257;-77
2023/05/09 08:39:22;;;;;;;1.07;0.67;;;17.90;74.70;;;;;;4874458;29;20312;-77
2023/05/09 08:41:53;;;;;;;1.87;1.03;;;17.90;74.40;;;;;;4877211;29;20386;-77
2023/05/09 08:44:22;;;;;;;2.47;1.13;;;17.70;73.90;;;;;;4876215;29;20680;-77
2023/05/09 08:46:55;;;;;;;2.23;1.03;;;17.70;73.40;;;;;;4876548;29;20834;-76
2023/05/09 08:49:24;;;;;;;0.63;0.53;;;17.60;73.20;;;;;;4875079;29;20201;-76
2023/05/09 08:51:53;;;;;;;1.70;0.80;;;17.70;73.90;;;;;;4878112;29;20629;-76
2023/05/09 08:54:22;;;;;;;2.27;1.00;;;17.70;73.90;;;;;;4876692;29;20281;-76
2023/05/09 08:56:51;;;;;;;1.47;0.87;;;17.70;73.80;;;;;;4876060;29;20213;-76
2023/05/09 08:59:20;;;;;;;2.00;0.70;;;17.70;73.50;;;;;;4877124;29;20310;-76
2023/05/09 09:01:49;;;;;;;0.50;0.50;;;17.80;74.10;;;;;;4876163;29;20205;-76
2023/05/09 09:04:17;;;;;;;1.20;0.60;;;17.80;74.40;;;;;;4873945;29;20650;-74
2023/05/09 09:06:46;;;;;;;1.90;0.70;;;17.80;75.10;;;;;;4875449;29;20296;-76
2023/05/09 09:09:16;;;;;;;2.43;1.17;;;17.80;73.90;;;;;;4875464;29;20261;-76
2023/05/09 09:11:46;;;;;;;6.33;0.80;;;17.80;73.60;;;;;;4872539;29;20253;-75
2023/05/09 09:14:24;;;;;;;1.53;0.87;;;17.80;74.20;;;;;;4873612;29;20228;-77
2023/05/09 09:16:54;;;;;;;0.50;0.50;;;17.80;74.40;;;;;;4872208;29;20248;-76
2023/05/09 09:19:29;;;;;;;0.50;0.50;;;17.70;73.90;;;;;;4873660;29;20209;-76
2023/05/09 09:21:59;;;;;;;0.53;0.53;;;17.70;73.90;;;;;;4870112;29;20196;-74
2023/05/09 09:24:28;;;;;;;0.53;0.40;;;17.70;73.30;;;;;;4873325;29;20253;-76
2023/05/09 09:26:56;;;;;;;0.30;0.30;;;17.60;73.70;;;;;;4876628;29;20205;-78
2023/05/09 09:29:27;;;;;;;0.97;0.70;;;17.70;74.10;;;;;;4878140;29;20689;-77
2023/05/09 09:31:55;;;;;;;2.83;0.70;;;17.60;74.10;;;;;;4873720;29;20201;-77
2023/05/09 09:34:24;;;;;;;1.03;0.70;;;17.60;74.50;;;;;;4871986;29;20955;-77
2023/05/09 09:37:21;;;;;;;0.77;0.77;;;17.60;74.50;;;;;;4875533;29;20666;-78
2023/05/09 09:39:57;;;;;;;1.53;0.87;;;17.40;74.40;;;;;;4874646;29;20201;-76
2023/05/09 09:42:49;;;;;;;0.83;0.63;;;17.40;74.80;;;;;;4839133;29;20725;-77
2023/05/09 09:45:20;;;;;;;0.60;0.60;;;17.40;75.40;;;;;;4864918;29;20606;-76
2023/05/09 09:47:49;;;;;;;0.77;0.73;;;17.40;75.40;;;;;;4869626;29;20233;-77
2023/05/09 09:50:21;;;;;;;3.40;0.77;;;17.40;75.50;;;;;;4875543;29;20215;-77
2023/05/09 09:52:52;;;;;;;0.60;0.60;;;17.40;75.50;;;;;;4873456;29;20197;-76
2023/05/09 09:55:21;;;;;;;0.50;0.50;;;17.50;75.80;;;;;;4875361;29;20225;-78
2023/05/09 09:57:50;;;;;;;0.40;0.30;;;17.50;75.80;;;;;;4874867;29;20655;-78
2023/05/09 10:00:26;;;;;;;0.70;0.50;;;17.60;75.80;;;;;;4879515;29;20213;-77
2023/05/09 10:02:56;;;;;;;0.83;0.63;;;17.60;75.10;;;;;;4874458;29;20208;-77
2023/05/09 10:05:28;;;;;;;0.90;0.67;;;17.60;75.00;;;;;;4878757;29;20194;-77
2023/05/09 10:07:59;;;;;;;2.80;0.40;;;17.60;75.20;;;;;;4871253;29;20223;-77
2023/05/09 10:10:28;;;;;;;0.53;0.47;;;17.70;75.70;;;;;;4872353;29;20650;-79
2023/05/09 10:12:59;;;;;;;0.57;0.53;;;17.70;75.70;;;;;;4879623;29;20229;-77
2023/05/09 10:15:30;;;;;;;1.07;0.83;;;17.70;75.80;;;;;;4875789;29;20218;-78
2023/05/09 10:18:16;;;;;;;0.60;0.60;;;17.70;76.00;;;;;;4878651;29;20200;-76
2023/05/09 10:20:46;;;;;;;1.17;1.03;;;17.70;76.40;;;;;;4870435;29;20220;-77
2023/05/09 10:23:18;;;;;;;0.90;0.70;;;17.60;76.20;;;;;;4867436;29;20213;-79
2023/05/09 10:26:00;;;;;;;0.60;0.53;;;17.60;76.30;;;;;;4879393;29;20680;-76
2023/05/09 10:28:42;;;;;;;1.00;0.80;;;17.50;76.30;;;;;;4873239;29;20225;-74
2023/05/09 10:31:15;;;;;;;1.10;0.67;;;17.50;76.30;;;;;;4871446;29;20576;-75
2023/05/09 10:33:47;;;;;;;1.90;0.93;;;17.50;76.40;;;;;;4873889;29;20296;-76
2023/05/09 10:36:19;;;;;;;1.17;1.07;;;17.40;76.60;;;;;;4878029;29;20852;-75
2023/05/09 10:38:48;;;;;;;0.97;0.80;;;17.40;76.40;;;;;;4876030;29;20240;-75
2023/05/09 10:41:17;;;;;;;1.63;0.70;;;17.50;76.60;;;;;;4881539;29;20237;-76
2023/05/09 10:43:46;;;;;;;1.10;0.60;;;17.50;76.60;;;;;;4877146;29;20205;-75
2023/05/09 10:46:16;;;;;;;2.07;1.07;;;17.60;76.80;;;;;;4876539;29;20245;-75
2023/05/09 10:48:45;;;;;;;1.87;1.03;;;17.60;76.20;;;;;;4879680;29;20201;-75
2023/05/09 10:51:14;;;;;;;1.90;0.97;;;17.70;76.10;;;;;;4881578;29;20604;-75
2023/05/09 10:53:43;;;;;;;1.53;1.07;;;17.70;76.00;;;;;;4874195;29;20201;-75
2023/05/09 10:56:24;;;;;;;1.20;0.80;;;17.70;76.30;;;;;;4871655;29;20639;-75
2023/05/09 10:58:53;;;;;;;1.27;0.80;;;17.80;76.60;;;;;;4874307;29;20213;-74
2023/05/09 11:01:35;;;;;;;0.97;0.87;;;17.90;76.20;;;;;;4874879;29;20234;-75
2023/05/09 11:04:11;;;;;;;1.13;0.80;;;17.90;76.10;;;;;;4868768;29;20209;-76
2023/05/09 11:06:49;;;;;;;6.73;1.17;;;18.10;76.00;;;;;;4881898;29;20220;-76
2023/05/09 11:09:27;;;;;;;1.40;0.73;;;18.20;76.00;;;;;;4876677;29;20288;-76
2023/05/09 11:11:57;;;;;;;2.57;0.83;;;18.30;76.20;;;;;;4875779;29;20257;-75
2023/05/09 11:14:33;;;;;;;1.93;1.53;;;18.40;75.60;;;;;;4868479;29;20209;-76
2023/05/09 11:17:05;;;;;;;0.70;0.70;;;18.50;75.50;;;;;;4881192;29;20735;-76
2023/05/09 11:19:59;;;;;;;1.13;0.77;;;18.60;74.70;;;;;;4877360;29;20196;-75
2023/05/09 11:22:29;;;;;;;0.87;0.80;;;18.60;73.80;;;;;;4864775;29;20247;-75
2023/05/09 11:25:04;;;;;;;0.90;0.83;;;18.70;74.10;;;;;;4869140;29;20209;-76
2023/05/09 11:27:40;;;;;;;0.53;0.50;;;18.80;74.40;;;;;;4875640;29;20207;-75
2023/05/09 11:30:09;;;;;;;0.70;0.60;;;18.80;73.90;;;;;;4871988;29;20652;-76
2023/05/09 11:32:47;;;;;;;1.53;0.60;;;18.80;72.60;;;;;;4878403;29;20237;-75
2023/05/09 11:35:17;;;;;;;1.40;0.70;;;18.80;73.20;;;;;;4873070;29;20213;-76
2023/05/09 11:37:47;;;;;;;0.77;0.70;;;18.90;73.40;;;;;;4876583;29;20292;-76
2023/05/09 11:40:17;;;;;;;1.00;0.67;;;19.00;73.30;;;;;;4870895;29;20483;-75
2023/05/09 11:42:47;;;;;;;0.93;0.63;;;19.00;72.90;;;;;;4877272;29;20204;-76
2023/05/09 11:45:16;;;;;;;1.10;1.00;;;19.00;72.00;;;;;;4874931;29;20266;-75
2023/05/09 11:47:47;;;;;;;1.03;0.87;;;19.10;72.30;;;;;;4873399;29;20208;-77
2023/05/09 11:50:16;;;;;;;1.07;0.90;;;19.10;72.20;;;;;;4879633;29;20634;-75
2023/05/09 11:52:45;;;;;;;1.00;0.70;;;19.20;72.00;;;;;;4880710;29;20678;-75
2023/05/09 11:55:14;;;;;;;1.97;1.13;;;19.20;71.60;;;;;;4880126;29;20260;-77
2023/05/09 11:57:45;;;;;;;1.83;0.70;;;19.20;71.80;;;;;;4876934;29;20208;-76
2023/05/09 12:00:16;;;;;;;1.83;1.17;;;19.20;71.70;;;;;;4881862;29;20738;-76
2023/05/09 12:02:46;;;;;;;0.57;0.57;;;19.20;71.30;;;;;;4876382;29;20201;-75
2023/05/09 12:05:17;;;;;;;1.37;0.83;;;19.20;71.30;;;;;;4869451;29;20198;-76
2023/05/09 12:07:46;;;;;;;1.10;0.55;;;19.30;71.90;;;;;;4874022;29;20207;-76
2023/05/09 12:10:19;;;;;;;1.35;0.82;;;19.40;71.40;;;;;;4876856;29;20201;-76
2023/05/09 12:12:49;;;;;;;0.90;0.60;;;19.40;71.20;;;;;;4876095;29;20197;-76
2023/05/09 12:15:18;;;;;;;1.10;0.80;;;19.40;71.30;;;;;;4878753;29;20201;-76
2023/05/09 12:18:00;;;;;;;0.68;0.45;;;19.40;71.00;;;;;;4874470;29;20205;-77
2023/05/09 12:20:28;;;;;;;1.02;0.85;;;19.50;70.80;;;;;;4872240;29;20194;-75
2023/05/09 12:22:57;;;;;;;2.75;0.80;;;19.50;70.20;;;;;;4875711;29;20205;-75
2023/05/09 12:25:34;;;;;;;0.70;0.57;;;19.50;70.40;;;;;;4868040;29;20693;-76
2023/05/09 12:28:03;;;;;;;0.83;0.70;;;19.60;70.80;;;;;;4874537;29;20205;-78
2023/05/09 12:30:32;;;;;;;1.33;0.82;;;19.70;70.30;;;;;;4878021;29;20265;-76
2023/05/09 12:33:01;;;;;;;1.27;1.17;;;19.70;70.00;;;;;;4875444;29;20205;-76
2023/05/09 12:35:31;;;;;;;2.85;1.00;;;19.60;68.60;;;;;;4873613;29;20204;-76
2023/05/09 12:37:59;;;;;;;1.08;0.98;;;19.70;69.60;;;;;;4876709;29;20258;-76
2023/05/09 12:40:27;;;;;;;4.18;1.10;;;19.70;70.00;;;;;;4877104;29;20237;-76
2023/05/09 12:42:59;;;;;;;8.70;1.25;;;19.70;69.30;;;;;;4871944;29;20213;-76
2023/05/09 12:45:28;;;;;;;3.60;1.10;;;19.70;69.60;;;;;;4868223;29;20197;-79
2023/05/09 12:47:58;;;;;;;1.23;1.08;;;19.80;70.00;;;;;;4869342;29;20269;-76
2023/05/09 12:53:26;;;;;;;0.40;0.40;;;19.80;69.10;;;;;;4869358;29;20284;-76
2023/05/09 12:55:56;;;;;;;0.75;0.50;;;19.80;68.10;;;;;;4870087;29;20261;-78
2023/05/09 12:58:29;;;;;;;0.70;0.60;;;19.80;67.80;;;;;;4869682;29;20293;-77
2023/05/09 13:00:58;;;;;;;3.42;0.60;;;19.80;68.30;;;;;;4871562;29;20296;-79
2023/05/09 13:03:29;;;;;;;17.20;0.93;;;19.80;68.60;;;;;;4868497;29;20300;-77
2023/05/09 13:06:00;;;;;;;1.38;1.00;;;19.80;67.50;;;;;;4877922;29;20257;-77
2023/05/09 13:08:29;;;;;;;1.65;0.80;;;19.80;67.50;;;;;;4881015;29;20204;-76